Airport View

Enter AWOS ICAO identifier for current METAR.

ex. KFNL

25 Oct 2020 11:02

TAF KBUR 250530Z 2506/2606 VRB03KT P6SM BKN035 FM251900 14006KT P6SM BKN040 FM252100 19008KT P6SM BKN040 FM260400 VRB03KT P6SM BKN040